This is the latest recevied weather packets stored in our database for station/object DH7LK-5. If no packets are shown the sender has not sent any weather packets the latest 1 day(s).
| Time | Temp. | Humidity | Pressure | Rain* | Wind** | Luminosity | Snow |
|---|---|---|---|---|---|---|---|
| 1778082389 | 13.89° C | 92% | 1006.7 hPa | 22.1 mm | - | - | - |
| 1778078788 | 13.33° C | 93% | 1006.5 hPa | 22.1 mm | - | - | - |
| 1778073385 | 12.78° C | 94% | 1006.5 hPa | 22.1 mm | - | - | - |
| 1778071584 | 12.78° C | 95% | 1006.5 hPa | 22.1 mm | - | - | - |
| 1778066176 | 12.22° C | 96% | 1005.9 hPa | 22.1 mm | - | - | - |
| 1778060768 | 11.67° C | 98% | 1005.4 hPa | 22.1 mm | - | - | - |
| 1778055365 | 11.67° C | 98% | 1004.6 hPa | 20.57 mm | - | - | - |
| 1778051763 | 11.67° C | 98% | 1004.3 hPa | 17.53 mm | - | - | - |
| 1778044557 | 11.67° C | 98% | 1004.2 hPa | 11.68 mm | - | - | - |
| 1778042755 | 11.67° C | 98% | 1004.3 hPa | 11.18 mm | - | - | - |
| 1778040954 | 11.67° C | 97% | 1004.4 hPa | 10.67 mm | - | - | - |
| 1778039153 | 11.67° C | 98% | 1004.6 hPa | 9.91 mm | - | - | - |
| 1778035552 | 11.67° C | 98% | 1005.3 hPa | 7.87 mm | - | - | - |
| 1778033751 | 11.67° C | 98% | 1005.7 hPa | 5.84 mm | - | - | - |
| 1778031947 | 12.22° C | 98% | 1005.7 hPa | 3.56 mm | - | - | - |
| 1778030146 | 12.22° C | 97% | 1005.7 hPa | 2.29 mm | - | - | - |
| 1778028340 | 12.78° C | 97% | 1006.2 hPa | 1.02 mm | - | - | - |
| 1778026544 | 12.78° C | 97% | 1006.5 hPa | 0.25 mm | - | - | - |
| 1778024736 | 12.78° C | 96% | 1006.9 hPa | 0.76 mm | - | - | - |
| 1778017529 | 14.44° C | 91% | 1007.2 hPa | 0.25 mm | - | - | - |
| 1778015728 | 14.44° C | 90% | 1007.4 hPa | 0.25 mm | - | - | - |
| 1778013929 | 14.44° C | 90% | 1007.5 hPa | 0.25 mm | - | - | - |
| 1778010325 | 16.11° C | 86% | 1007.2 hPa | 0.25 mm | - | - | - |
| 1778008524 | 16.11° C | 85% | 1007.3 hPa | 0.25 mm | - | - | - |
| 1778003122 | 17.78° C | 81% | 1007.2 hPa | 0.25 mm | - | - | - |
* Rain since midnight (hover to see other rain measurements)
** Current wind speed in m/s (hover to see current wind gust speed)